createdAt,value
2023-04-21T00:02:46.951Z,10.67
2023-04-21T00:07:03.141Z,10.85
2023-04-21T00:11:15.603Z,10.85
2023-04-21T00:15:28.035Z,10.80
2023-04-21T00:19:40.338Z,10.56
2023-04-21T00:23:52.803Z,10.41
2023-04-21T00:28:05.304Z,10.38
2023-04-21T00:32:17.746Z,10.23
2023-04-21T00:36:30.098Z,10.12
2023-04-21T00:40:42.351Z,10.12
2023-04-21T00:44:57.391Z,10.18
2023-04-21T00:49:09.957Z,10.37
2023-04-21T00:53:22.830Z,10.34
2023-04-21T00:57:40.295Z,10.48
2023-04-21T01:01:53.324Z,10.18
2023-04-21T01:06:07.369Z,10.09
2023-04-21T01:10:22.485Z,10.10
2023-04-21T01:14:36.298Z,9.91
2023-04-21T01:18:49.958Z,9.88
2023-04-21T01:23:02.580Z,9.85
2023-04-21T01:27:20.188Z,9.94
2023-04-21T01:31:33.283Z,9.80
2023-04-21T01:35:46.261Z,9.92
2023-04-21T01:40:02.557Z,10.03
2023-04-21T01:44:14.950Z,9.96
2023-04-21T01:48:27.555Z,9.96
2023-04-21T01:52:39.899Z,9.70
2023-04-21T01:56:52.384Z,9.77
2023-04-21T02:01:06.411Z,9.57
2023-04-21T02:05:19.201Z,9.63
2023-04-21T02:09:32.272Z,9.58
2023-04-21T02:13:44.631Z,9.54
2023-04-21T02:17:58.736Z,9.65
2023-04-21T02:22:13.173Z,9.78
2023-04-21T02:26:25.966Z,9.79
2023-04-21T02:30:38.966Z,9.72
2023-04-21T02:34:52.243Z,9.65
2023-04-21T02:39:04.577Z,9.69
2023-04-21T02:43:17.468Z,9.74
2023-04-21T02:47:29.832Z,9.53
2023-04-21T02:51:42.748Z,9.46
2023-04-21T02:55:55.856Z,9.26
2023-04-21T03:00:12.148Z,9.17
2023-04-21T03:04:25.876Z,9.33
2023-04-21T03:08:38.341Z,9.42
2023-04-21T03:12:51.588Z,9.26
2023-04-21T03:17:03.944Z,9.65
2023-04-21T03:21:16.945Z,9.59
2023-04-21T03:25:29.872Z,9.49
2023-04-21T03:29:42.596Z,9.76
2023-04-21T03:33:54.988Z,9.55
2023-04-21T03:38:07.526Z,9.64
2023-04-21T03:42:20.867Z,9.61
2023-04-21T03:46:34.384Z,9.58
2023-04-21T03:50:46.845Z,9.62
2023-04-21T03:54:59.402Z,9.76
2023-04-21T03:59:11.807Z,9.84
2023-04-21T04:03:24.359Z,9.98
2023-04-21T04:07:36.704Z,10.12
2023-04-21T04:11:49.198Z,10.05
2023-04-21T04:16:01.600Z,10.05
2023-04-21T04:20:13.988Z,10.11
2023-04-21T04:24:27.037Z,10.24
2023-04-21T04:28:39.430Z,10.38
2023-04-21T04:32:53.246Z,10.50
2023-04-21T04:37:06.968Z,10.33
2023-04-21T04:41:21.161Z,10.41
2023-04-21T04:45:33.729Z,10.40
2023-04-21T04:49:46.170Z,10.47
2023-04-21T04:53:58.520Z,10.51
2023-04-21T04:58:10.990Z,10.63
2023-04-21T05:02:24.675Z,10.75
2023-04-21T05:06:37.540Z,11.23
2023-04-21T05:10:49.801Z,12.48
2023-04-21T05:15:02.197Z,13.06
2023-04-21T05:19:16.301Z,14.27
2023-04-21T05:23:30.589Z,13.96
2023-04-21T05:27:43.716Z,14.74
2023-04-21T05:31:56.232Z,15.14
2023-04-21T05:36:11.995Z,15.28
2023-04-21T05:40:24.483Z,14.05
2023-04-21T05:44:37.064Z,13.79
2023-04-21T05:48:49.562Z,13.61
2023-04-21T05:53:02.691Z,14.11
2023-04-21T05:57:16.966Z,14.67
2023-04-21T06:01:29.720Z,13.67
2023-04-21T06:05:42.207Z,14.12
2023-04-21T06:09:54.926Z,14.29
2023-04-21T06:14:08.456Z,14.02
2023-04-21T06:18:21.150Z,13.96
2023-04-21T06:22:34.033Z,13.89
2023-04-21T06:26:46.436Z,14.29
2023-04-21T06:30:59.751Z,14.34
2023-04-21T06:35:17.449Z,14.52
2023-04-21T06:39:29.872Z,14.88
2023-04-21T06:43:42.862Z,14.87
2023-04-21T06:47:55.297Z,15.03
2023-04-21T06:52:07.678Z,14.62
2023-04-21T06:56:20.059Z,15.52
2023-04-21T07:00:32.547Z,15.89
2023-04-21T07:04:45.122Z,15.80
2023-04-21T07:08:57.766Z,15.94
2023-04-21T07:13:10.253Z,16.38
2023-04-21T07:17:23.496Z,16.56
2023-04-21T07:21:36.545Z,16.66
2023-04-21T07:25:48.988Z,16.52
2023-04-21T07:30:01.510Z,17.34
2023-04-21T07:34:13.919Z,17.14
2023-04-21T07:38:26.509Z,17.70
2023-04-21T07:42:39.356Z,17.65
2023-04-21T07:46:51.852Z,17.00
2023-04-21T07:51:04.376Z,17.86
2023-04-21T07:55:16.930Z,18.28
2023-04-21T07:59:29.251Z,18.38
2023-04-21T08:03:43.212Z,18.36
2023-04-21T08:07:55.948Z,17.58
2023-04-21T08:12:08.414Z,17.80
2023-04-21T08:16:20.895Z,18.84
2023-04-21T08:20:33.341Z,19.01
2023-04-21T08:24:45.774Z,19.34
2023-04-21T08:28:58.217Z,19.24
2023-04-21T08:33:14.083Z,19.35
2023-04-21T08:37:26.509Z,19.39
2023-04-21T08:41:40.956Z,18.72
2023-04-21T08:45:56.463Z,19.05
2023-04-21T08:50:13.822Z,19.69
2023-04-21T08:54:28.034Z,20.14
2023-04-21T08:58:42.178Z,19.84
2023-04-21T09:03:01.739Z,20.16
2023-04-21T09:07:35.425Z,20.13
2023-04-21T09:11:57.417Z,20.17
2023-04-21T09:16:21.965Z,20.06
2023-04-21T09:20:34.932Z,19.82
2023-04-21T09:24:49.076Z,20.09
2023-04-21T09:29:02.136Z,20.19
2023-04-21T09:33:29.595Z,21.53
2023-04-21T09:37:46.788Z,21.72
2023-04-21T09:41:59.705Z,21.76
2023-04-21T09:46:13.354Z,20.88
2023-04-21T09:50:54.812Z,21.35
2023-04-21T09:55:04.724Z,21.00
2023-04-21T09:59:23.531Z,20.90
2023-04-21T10:03:40.257Z,21.76
2023-04-21T10:07:53.960Z,21.70
2023-04-21T10:12:09.163Z,21.91
2023-04-21T10:16:23.531Z,22.32
2023-04-21T10:21:03.398Z,21.55
2023-04-21T10:25:15.765Z,20.78
2023-04-21T10:29:47.873Z,21.73
2023-04-21T10:34:06.935Z,22.62
2023-04-21T10:38:35.911Z,22.06
2023-04-21T10:42:49.791Z,21.79
2023-04-21T10:47:02.195Z,21.54
2023-04-21T10:51:15.616Z,22.48
2023-04-21T10:55:29.748Z,22.54
2023-04-21T10:59:42.582Z,21.35
2023-04-21T11:03:58.553Z,21.89
2023-04-21T11:08:15.730Z,22.36
2023-04-21T11:12:30.617Z,22.76
2023-04-21T11:16:43.595Z,22.87
2023-04-21T11:20:56.115Z,23.97
2023-04-21T11:25:18.914Z,23.54
2023-04-21T11:29:31.332Z,22.75
2023-04-21T11:33:43.882Z,23.56
2023-04-21T11:37:56.776Z,23.22
2023-04-21T11:42:09.220Z,23.46
2023-04-21T11:46:28.835Z,22.91
2023-04-21T11:50:41.413Z,23.03
2023-04-21T11:55:26.519Z,22.56
2023-04-21T11:59:39.005Z,22.93
2023-04-21T12:03:56.027Z,23.54
2023-04-21T12:08:15.210Z,22.05
2023-04-21T12:12:27.977Z,22.83
2023-04-21T12:16:40.422Z,23.08
2023-04-21T12:20:53.602Z,23.16
2023-04-21T12:25:06.554Z,23.22
2023-04-21T12:29:18.856Z,23.11
2023-04-21T12:33:31.641Z,22.04
2023-04-21T12:37:45.131Z,21.43
2023-04-21T12:41:58.821Z,22.24
2023-04-21T12:46:11.348Z,22.16
2023-04-21T12:50:23.672Z,20.83
2023-04-21T12:54:36.357Z,21.70
2023-04-21T12:58:49.802Z,21.95
2023-04-21T13:03:02.774Z,21.71
2023-04-21T13:07:16.502Z,21.39
2023-04-21T13:11:29.066Z,21.99
2023-04-21T13:15:41.967Z,22.07
2023-04-21T13:19:54.390Z,22.05
2023-04-21T13:24:06.983Z,21.51
2023-04-21T13:28:19.981Z,22.25
2023-04-21T13:32:32.337Z,21.87
2023-04-21T13:36:45.352Z,21.69
2023-04-21T13:40:59.706Z,21.90
2023-04-21T13:45:12.550Z,21.84
2023-04-21T13:49:25.014Z,21.86
2023-04-21T13:53:37.447Z,22.24
2023-04-21T13:57:49.797Z,21.88
2023-04-21T14:02:02.430Z,21.59
2023-04-21T14:06:15.011Z,22.12
2023-04-21T14:10:27.605Z,21.71
2023-04-21T14:14:40.006Z,20.90
2023-04-21T14:18:53.809Z,21.14
2023-04-21T14:23:06.195Z,19.98
2023-04-21T14:27:18.675Z,20.02
2023-04-21T14:31:31.196Z,19.75
2023-04-21T14:35:43.621Z,19.68
2023-04-21T14:39:56.030Z,19.58
2023-04-21T14:44:08.749Z,19.41
2023-04-21T14:48:21.738Z,19.57
2023-04-21T14:52:34.101Z,19.88
2023-04-21T14:56:46.554Z,19.72
2023-04-21T15:00:59.419Z,19.42
2023-04-21T15:05:12.045Z,19.78
2023-04-21T15:09:24.578Z,19.36
2023-04-21T15:13:37.083Z,19.52
2023-04-21T15:17:49.484Z,18.97
2023-04-21T15:22:01.769Z,19.40
2023-04-21T15:26:14.144Z,19.43
2023-04-21T15:30:26.514Z,19.22
2023-04-21T15:34:38.858Z,19.31
2023-04-21T15:38:51.296Z,19.27
2023-04-21T15:43:03.659Z,19.47
2023-04-21T15:47:17.312Z,19.41
2023-04-21T15:51:29.694Z,19.35
2023-04-21T15:55:41.978Z,19.34
2023-04-21T15:59:54.611Z,19.09
2023-04-21T16:04:07.263Z,18.96
2023-04-21T16:08:19.850Z,19.02
2023-04-21T16:12:32.189Z,18.97
2023-04-21T16:16:45.671Z,18.64
2023-04-21T16:20:58.254Z,18.61
2023-04-21T16:25:14.129Z,18.54
2023-04-21T16:29:27.048Z,18.41
2023-04-21T16:33:39.417Z,18.13
2023-04-21T16:37:51.819Z,17.96
2023-04-21T16:42:04.402Z,17.83
2023-04-21T16:46:17.512Z,17.61
2023-04-21T16:50:29.920Z,17.50
2023-04-21T16:54:42.354Z,17.28
2023-04-21T16:58:54.713Z,17.11
2023-04-21T17:03:07.436Z,16.90
2023-04-21T17:07:19.948Z,16.81
2023-04-21T17:11:33.890Z,16.68
2023-04-21T17:15:46.268Z,16.57
2023-04-21T17:19:58.600Z,16.47
2023-04-21T17:24:11.094Z,16.35
2023-04-21T17:28:23.503Z,16.25
2023-04-21T17:32:41.157Z,16.11
2023-04-21T17:36:53.627Z,15.93
2023-04-21T17:41:07.931Z,15.84
2023-04-21T17:45:20.522Z,15.75
2023-04-21T17:49:32.871Z,15.68
2023-04-21T17:53:46.660Z,15.61
2023-04-21T17:57:59.288Z,15.56
2023-04-21T18:02:11.657Z,15.46
2023-04-21T18:06:24.520Z,15.34
2023-04-21T18:10:38.233Z,15.20
2023-04-21T18:14:50.597Z,15.04
2023-04-21T18:19:03.119Z,14.95
2023-04-21T18:23:15.487Z,14.88
2023-04-21T18:27:27.915Z,14.87
2023-04-21T18:31:40.481Z,14.84
2023-04-21T18:35:52.855Z,14.93
2023-04-21T18:40:05.966Z,14.73
2023-04-21T18:44:18.446Z,14.70
2023-04-21T18:48:30.852Z,14.65
2023-04-21T18:52:43.581Z,14.56
2023-04-21T18:56:55.978Z,14.55
2023-04-21T19:01:08.703Z,14.50
2023-04-21T19:05:21.160Z,14.41
2023-04-21T19:09:33.567Z,14.38
2023-04-21T19:13:48.334Z,14.39
2023-04-21T19:18:00.792Z,14.33
2023-04-21T19:22:13.446Z,14.36
2023-04-21T19:26:26.541Z,14.29
2023-04-21T19:30:38.915Z,14.28
2023-04-21T19:34:51.460Z,14.26
2023-04-21T19:39:05.740Z,14.25
2023-04-21T19:43:19.715Z,14.12
2023-04-21T19:47:36.507Z,14.05
2023-04-21T19:51:48.826Z,13.93
2023-04-21T19:56:01.592Z,13.86
2023-04-21T20:00:15.582Z,13.85
2023-04-21T20:04:28.010Z,13.83
2023-04-21T20:08:40.541Z,13.80
2023-04-21T20:12:53.037Z,13.74
2023-04-21T20:17:05.580Z,13.72
2023-04-21T20:21:17.970Z,13.63
2023-04-21T20:25:30.453Z,13.64
2023-04-21T20:29:42.969Z,13.94
2023-04-21T20:33:55.483Z,13.70
2023-04-21T20:38:08.241Z,13.54
2023-04-21T20:42:22.059Z,13.48
2023-04-21T20:46:35.599Z,13.51
2023-04-21T20:50:49.793Z,13.87
2023-04-21T20:55:03.649Z,13.63
2023-04-21T20:59:16.187Z,13.43
2023-04-21T21:03:29.202Z,13.33
2023-04-21T21:07:41.673Z,13.04
2023-04-21T21:11:54.064Z,13.06
2023-04-21T21:16:06.917Z,13.33
2023-04-21T21:20:19.391Z,13.32
2023-04-21T21:24:31.827Z,13.05
2023-04-21T21:28:44.263Z,13.30
2023-04-21T21:32:56.809Z,13.05
2023-04-21T21:37:09.176Z,13.07
2023-04-21T21:41:21.538Z,12.97
2023-04-21T21:45:34.228Z,12.93
2023-04-21T21:49:46.700Z,12.87
2023-04-21T21:53:59.042Z,12.79
2023-04-21T21:58:11.469Z,12.76
2023-04-21T22:02:23.994Z,12.94
2023-04-21T22:06:37.124Z,12.81
2023-04-21T22:10:49.569Z,12.67
2023-04-21T22:15:01.925Z,12.88
2023-04-21T22:19:14.818Z,12.72
2023-04-21T22:23:28.800Z,12.54
2023-04-21T22:27:41.124Z,12.51
2023-04-21T22:31:53.613Z,12.37
2023-04-21T22:36:07.282Z,12.59
2023-04-21T22:40:21.694Z,12.49
2023-04-21T22:44:34.026Z,12.30
2023-04-21T22:48:46.825Z,12.21
2023-04-21T22:52:59.148Z,12.18
2023-04-21T22:57:11.667Z,12.24
2023-04-21T23:01:24.199Z,12.50
2023-04-21T23:05:36.731Z,12.53
2023-04-21T23:09:49.171Z,12.55
2023-04-21T23:14:01.464Z,12.45
2023-04-21T23:18:13.890Z,12.27
2023-04-21T23:22:26.408Z,12.13
2023-04-21T23:26:38.972Z,12.07
2023-04-21T23:30:51.455Z,12.10
2023-04-21T23:35:05.044Z,12.06
2023-04-21T23:39:18.531Z,11.93
2023-04-21T23:43:32.138Z,12.00
2023-04-21T23:47:45.905Z,11.93
2023-04-21T23:51:58.745Z,12.20
2023-04-21T23:56:11.098Z,12.34
